sensor_id;sensor_type;location;lat;lon;timestamp;P1;durP1;ratioP1;P2;durP2;ratioP2
59105;SDS011;44891;50.204;8.132;2022-09-28T00:02:07;9.32;;;6.28;;
59105;SDS011;44891;50.204;8.132;2022-09-28T00:10:12;8.38;;;6.22;;
59105;SDS011;44891;50.204;8.132;2022-09-28T00:14:17;9.15;;;5.95;;
59105;SDS011;44891;50.204;8.132;2022-09-28T00:18:19;9.63;;;6.07;;
59105;SDS011;44891;50.204;8.132;2022-09-28T00:22:21;7.88;;;5.60;;
59105;SDS011;44891;50.204;8.132;2022-09-28T00:26:23;6.75;;;5.18;;
59105;SDS011;44891;50.204;8.132;2022-09-28T00:30:27;6.68;;;5.70;;
59105;SDS011;44891;50.204;8.132;2022-09-28T00:34:29;6.97;;;5.32;;
59105;SDS011;44891;50.204;8.132;2022-09-28T00:38:34;9.27;;;6.30;;
59105;SDS011;44891;50.204;8.132;2022-09-28T00:42:36;7.55;;;5.60;;
59105;SDS011;44891;50.204;8.132;2022-09-28T00:46:43;7.22;;;5.30;;
59105;SDS011;44891;50.204;8.132;2022-09-28T00:50:45;7.50;;;5.10;;
59105;SDS011;44891;50.204;8.132;2022-09-28T00:54:48;6.45;;;5.47;;
59105;SDS011;44891;50.204;8.132;2022-09-28T00:58:52;7.88;;;5.97;;
59105;SDS011;44891;50.204;8.132;2022-09-28T01:02:56;10.13;;;6.35;;
59105;SDS011;44891;50.204;8.132;2022-09-28T01:06:59;6.85;;;4.65;;
59105;SDS011;44891;50.204;8.132;2022-09-28T01:11:01;5.90;;;4.28;;
59105;SDS011;44891;50.204;8.132;2022-09-28T01:15:04;5.60;;;4.70;;
59105;SDS011;44891;50.204;8.132;2022-09-28T01:19:11;5.80;;;4.90;;
59105;SDS011;44891;50.204;8.132;2022-09-28T01:28:03;5.60;;;4.15;;
59105;SDS011;44891;50.204;8.132;2022-09-28T01:32:12;4.72;;;3.75;;
59105;SDS011;44891;50.204;8.132;2022-09-28T01:36:23;4.03;;;3.10;;
59105;SDS011;44891;50.204;8.132;2022-09-28T01:40:29;4.88;;;3.00;;
59105;SDS011;44891;50.204;8.132;2022-09-28T01:44:37;3.38;;;2.10;;
59105;SDS011;44891;50.204;8.132;2022-09-28T01:48:44;1.58;;;1.48;;
59105;SDS011;44891;50.204;8.132;2022-09-28T01:52:53;2.28;;;1.50;;
59105;SDS011;44891;50.204;8.132;2022-09-28T01:57:01;3.22;;;1.50;;
59105;SDS011;44891;50.204;8.132;2022-09-28T02:01:18;1.33;;;1.23;;
59105;SDS011;44891;50.204;8.132;2022-09-28T02:05:26;1.70;;;1.20;;
59105;SDS011;44891;50.204;8.132;2022-09-28T02:09:34;1.42;;;1.10;;
59105;SDS011;44891;50.204;8.132;2022-09-28T02:13:39;0.95;;;0.88;;
59105;SDS011;44891;50.204;8.132;2022-09-28T02:17:47;1.20;;;0.95;;
59105;SDS011;44891;50.204;8.132;2022-09-28T02:21:52;0.60;;;0.60;;
59105;SDS011;44891;50.204;8.132;2022-09-28T02:26:00;1.17;;;0.88;;
59105;SDS011;44891;50.204;8.132;2022-09-28T02:30:05;1.25;;;0.60;;
59105;SDS011;44891;50.204;8.132;2022-09-28T02:34:09;1.65;;;0.90;;
59105;SDS011;44891;50.204;8.132;2022-09-28T02:38:12;2.20;;;0.88;;
59105;SDS011;44891;50.204;8.132;2022-09-28T02:42:17;0.90;;;0.90;;
59105;SDS011;44891;50.204;8.132;2022-09-28T02:46:26;1.17;;;0.90;;
59105;SDS011;44891;50.204;8.132;2022-09-28T02:50:43;0.93;;;0.90;;
59105;SDS011;44891;50.204;8.132;2022-09-28T02:55:01;2.53;;;1.20;;
59105;SDS011;44891;50.204;8.132;2022-09-28T02:59:18;1.90;;;0.90;;
59105;SDS011;44891;50.204;8.132;2022-09-28T03:03:33;2.45;;;1.10;;
59105;SDS011;44891;50.204;8.132;2022-09-28T03:07:45;3.75;;;2.10;;
59105;SDS011;44891;50.204;8.132;2022-09-28T03:11:54;2.47;;;1.05;;
59105;SDS011;44891;50.204;8.132;2022-09-28T03:16:09;2.00;;;1.10;;
59105;SDS011;44891;50.204;8.132;2022-09-28T03:20:14;2.00;;;1.20;;
59105;SDS011;44891;50.204;8.132;2022-09-28T03:24:18;1.73;;;1.20;;
59105;SDS011;44891;50.204;8.132;2022-09-28T03:28:20;1.92;;;1.38;;
59105;SDS011;44891;50.204;8.132;2022-09-28T03:32:23;2.17;;;1.10;;
59105;SDS011;44891;50.204;8.132;2022-09-28T03:36:25;3.42;;;1.40;;
59105;SDS011;44891;50.204;8.132;2022-09-28T03:44:30;2.33;;;1.27;;
59105;SDS011;44891;50.204;8.132;2022-09-28T03:52:35;2.28;;;1.25;;
59105;SDS011;44891;50.204;8.132;2022-09-28T04:00:41;2.45;;;1.38;;
59105;SDS011;44891;50.204;8.132;2022-09-28T04:08:45;2.38;;;1.40;;
59105;SDS011;44891;50.204;8.132;2022-09-28T04:12:48;2.53;;;1.30;;
59105;SDS011;44891;50.204;8.132;2022-09-28T04:16:51;2.40;;;1.42;;
59105;SDS011;44891;50.204;8.132;2022-09-28T04:20:58;1.80;;;1.60;;
59105;SDS011;44891;50.204;8.132;2022-09-28T04:25:04;3.88;;;1.58;;
59105;SDS011;44891;50.204;8.132;2022-09-28T04:29:09;2.15;;;1.50;;
59105;SDS011;44891;50.204;8.132;2022-09-28T04:33:37;1.73;;;1.45;;
59105;SDS011;44891;50.204;8.132;2022-09-28T04:37:39;1.50;;;1.40;;
59105;SDS011;44891;50.204;8.132;2022-09-28T04:41:41;4.68;;;3.60;;
59105;SDS011;44891;50.204;8.132;2022-09-28T04:49:47;3.45;;;2.30;;
59105;SDS011;44891;50.204;8.132;2022-09-28T04:53:54;3.58;;;2.67;;
59105;SDS011;44891;50.204;8.132;2022-09-28T04:57:56;5.63;;;3.33;;
59105;SDS011;44891;50.204;8.132;2022-09-28T05:02:03;4.70;;;3.85;;
59105;SDS011;44891;50.204;8.132;2022-09-28T05:06:24;2.80;;;2.45;;
59105;SDS011;44891;50.204;8.132;2022-09-28T05:10:33;3.25;;;2.67;;
59105;SDS011;44891;50.204;8.132;2022-09-28T05:18:39;2.78;;;2.00;;
59105;SDS011;44891;50.204;8.132;2022-09-28T05:22:41;3.63;;;1.88;;
59105;SDS011;44891;50.204;8.132;2022-09-28T05:26:43;3.33;;;2.40;;
59105;SDS011;44891;50.204;8.132;2022-09-28T05:35:12;3.25;;;2.20;;
59105;SDS011;44891;50.204;8.132;2022-09-28T05:39:18;3.95;;;2.65;;
59105;SDS011;44891;50.204;8.132;2022-09-28T05:43:21;5.47;;;3.70;;
59105;SDS011;44891;50.204;8.132;2022-09-28T05:47:23;4.10;;;2.30;;
59105;SDS011;44891;50.204;8.132;2022-09-28T05:51:27;5.90;;;2.88;;
59105;SDS011;44891;50.204;8.132;2022-09-28T05:55:29;2.83;;;2.03;;
59105;SDS011;44891;50.204;8.132;2022-09-28T05:59:32;3.38;;;1.98;;
59105;SDS011;44891;50.204;8.132;2022-09-28T06:03:36;3.17;;;1.90;;
59105;SDS011;44891;50.204;8.132;2022-09-28T06:07:40;5.30;;;2.90;;
59105;SDS011;44891;50.204;8.132;2022-09-28T06:11:42;3.55;;;2.90;;
59105;SDS011;44891;50.204;8.132;2022-09-28T06:15:55;16.27;;;5.93;;
59105;SDS011;44891;50.204;8.132;2022-09-28T06:24:19;6.20;;;3.40;;
59105;SDS011;44891;50.204;8.132;2022-09-28T06:28:21;6.00;;;3.58;;
59105;SDS011;44891;50.204;8.132;2022-09-28T06:36:26;4.38;;;2.50;;
59105;SDS011;44891;50.204;8.132;2022-09-28T06:40:30;3.92;;;2.92;;
59105;SDS011;44891;50.204;8.132;2022-09-28T06:44:34;2.35;;;1.77;;
59105;SDS011;44891;50.204;8.132;2022-09-28T06:48:54;4.72;;;2.10;;
59105;SDS011;44891;50.204;8.132;2022-09-28T06:53:22;4.40;;;2.92;;
59105;SDS011;44891;50.204;8.132;2022-09-28T06:57:31;7.38;;;3.97;;
59105;SDS011;44891;50.204;8.132;2022-09-28T07:01:34;11.27;;;5.40;;
59105;SDS011;44891;50.204;8.132;2022-09-28T07:06:14;8.60;;;4.25;;
59105;SDS011;44891;50.204;8.132;2022-09-28T07:10:30;5.55;;;3.65;;
59105;SDS011;44891;50.204;8.132;2022-09-28T07:18:46;4.00;;;2.67;;
59105;SDS011;44891;50.204;8.132;2022-09-28T07:26:54;4.93;;;2.10;;
59105;SDS011;44891;50.204;8.132;2022-09-28T07:31:28;1.95;;;1.75;;
59105;SDS011;44891;50.204;8.132;2022-09-28T07:35:52;3.92;;;2.00;;
59105;SDS011;44891;50.204;8.132;2022-09-28T07:40:00;2.97;;;1.88;;
59105;SDS011;44891;50.204;8.132;2022-09-28T07:44:21;3.33;;;1.95;;
59105;SDS011;44891;50.204;8.132;2022-09-28T07:48:28;2.88;;;1.90;;
59105;SDS011;44891;50.204;8.132;2022-09-28T07:52:54;2.33;;;2.13;;
59105;SDS011;44891;50.204;8.132;2022-09-28T07:57:03;3.20;;;1.90;;
59105;SDS011;44891;50.204;8.132;2022-09-28T08:01:25;2.50;;;1.90;;
59105;SDS011;44891;50.204;8.132;2022-09-28T08:05:29;2.90;;;2.40;;
59105;SDS011;44891;50.204;8.132;2022-09-28T08:09:32;3.17;;;1.98;;
59105;SDS011;44891;50.204;8.132;2022-09-28T08:14:07;2.50;;;2.10;;
59105;SDS011;44891;50.204;8.132;2022-09-28T08:18:30;2.88;;;1.70;;
59105;SDS011;44891;50.204;8.132;2022-09-28T08:22:34;5.15;;;1.95;;
59105;SDS011;44891;50.204;8.132;2022-09-28T08:26:37;1.77;;;1.60;;
59105;SDS011;44891;50.204;8.132;2022-09-28T08:30:39;3.58;;;1.80;;
59105;SDS011;44891;50.204;8.132;2022-09-28T08:34:59;2.60;;;1.98;;
59105;SDS011;44891;50.204;8.132;2022-09-28T08:39:19;3.25;;;1.70;;
59105;SDS011;44891;50.204;8.132;2022-09-28T08:43:44;4.22;;;1.70;;
59105;SDS011;44891;50.204;8.132;2022-09-28T08:48:04;4.15;;;1.90;;
59105;SDS011;44891;50.204;8.132;2022-09-28T08:52:50;3.03;;;1.67;;
59105;SDS011;44891;50.204;8.132;2022-09-28T08:57:26;2.30;;;1.80;;
59105;SDS011;44891;50.204;8.132;2022-09-28T09:01:34;3.58;;;1.50;;
59105;SDS011;44891;50.204;8.132;2022-09-28T09:05:46;2.15;;;1.50;;
59105;SDS011;44891;50.204;8.132;2022-09-28T09:14:49;3.00;;;1.70;;
59105;SDS011;44891;50.204;8.132;2022-09-28T09:19:01;3.03;;;1.60;;
59105;SDS011;44891;50.204;8.132;2022-09-28T09:23:24;1.70;;;1.40;;
59105;SDS011;44891;50.204;8.132;2022-09-28T09:27:41;1.70;;;1.60;;
59105;SDS011;44891;50.204;8.132;2022-09-28T09:31:58;1.60;;;1.30;;
59105;SDS011;44891;50.204;8.132;2022-09-28T09:36:14;1.58;;;1.40;;
59105;SDS011;44891;50.204;8.132;2022-09-28T09:41:02;2.80;;;1.50;;
59105;SDS011;44891;50.204;8.132;2022-09-28T09:45:40;2.60;;;1.50;;
59105;SDS011;44891;50.204;8.132;2022-09-28T09:50:24;1.60;;;1.50;;
59105;SDS011;44891;50.204;8.132;2022-09-28T09:54:33;2.42;;;1.55;;
59105;SDS011;44891;50.204;8.132;2022-09-28T09:58:41;1.58;;;1.48;;
59105;SDS011;44891;50.204;8.132;2022-09-28T10:02:54;2.05;;;1.63;;
59105;SDS011;44891;50.204;8.132;2022-09-28T10:07:13;10.55;;;7.15;;
59105;SDS011;44891;50.204;8.132;2022-09-28T10:11:24;1.60;;;1.50;;
59105;SDS011;44891;50.204;8.132;2022-09-28T10:15:31;14.27;;;5.43;;
59105;SDS011;44891;50.204;8.132;2022-09-28T10:19:48;3.22;;;2.45;;
59105;SDS011;44891;50.204;8.132;2022-09-28T10:24:14;1.88;;;1.77;;
59105;SDS011;44891;50.204;8.132;2022-09-28T10:28:31;2.53;;;1.67;;
59105;SDS011;44891;50.204;8.132;2022-09-28T10:32:36;2.30;;;1.80;;
59105;SDS011;44891;50.204;8.132;2022-09-28T10:36:48;2.45;;;1.77;;
59105;SDS011;44891;50.204;8.132;2022-09-28T10:40:58;2.75;;;1.60;;
59105;SDS011;44891;50.204;8.132;2022-09-28T10:45:23;2.17;;;1.60;;
59105;SDS011;44891;50.204;8.132;2022-09-28T10:49:25;2.95;;;1.58;;
59105;SDS011;44891;50.204;8.132;2022-09-28T10:53:32;1.98;;;1.45;;
59105;SDS011;44891;50.204;8.132;2022-09-28T10:57:37;1.92;;;1.65;;
59105;SDS011;44891;50.204;8.132;2022-09-28T11:01:42;2.70;;;1.60;;
59105;SDS011;44891;50.204;8.132;2022-09-28T11:05:51;2.60;;;1.40;;
59105;SDS011;44891;50.204;8.132;2022-09-28T11:09:58;1.92;;;1.50;;
59105;SDS011;44891;50.204;8.132;2022-09-28T11:14:04;1.65;;;1.30;;
59105;SDS011;44891;50.204;8.132;2022-09-28T11:18:24;1.95;;;1.60;;
59105;SDS011;44891;50.204;8.132;2022-09-28T11:22:35;1.60;;;1.40;;
59105;SDS011;44891;50.204;8.132;2022-09-28T11:26:42;1.60;;;1.20;;
59105;SDS011;44891;50.204;8.132;2022-09-28T11:30:54;1.65;;;1.45;;
59105;SDS011;44891;50.204;8.132;2022-09-28T11:35:11;1.88;;;1.35;;
59105;SDS011;44891;50.204;8.132;2022-09-28T11:39:22;1.52;;;1.30;;
59105;SDS011;44891;50.204;8.132;2022-09-28T11:43:43;2.60;;;1.58;;
59105;SDS011;44891;50.204;8.132;2022-09-28T11:48:07;2.28;;;1.33;;
59105;SDS011;44891;50.204;8.132;2022-09-28T11:52:16;1.85;;;1.40;;
59105;SDS011;44891;50.204;8.132;2022-09-28T11:56:27;1.83;;;1.15;;
59105;SDS011;44891;50.204;8.132;2022-09-28T12:00:36;1.70;;;1.30;;
59105;SDS011;44891;50.204;8.132;2022-09-28T12:04:45;2.53;;;1.10;;
59105;SDS011;44891;50.204;8.132;2022-09-28T12:09:02;2.63;;;1.23;;
59105;SDS011;44891;50.204;8.132;2022-09-28T12:13:27;1.48;;;1.30;;
59105;SDS011;44891;50.204;8.132;2022-09-28T12:17:35;1.10;;;1.10;;
59105;SDS011;44891;50.204;8.132;2022-09-28T12:21:43;1.67;;;1.10;;
59105;SDS011;44891;50.204;8.132;2022-09-28T12:25:48;2.85;;;1.13;;
59105;SDS011;44891;50.204;8.132;2022-09-28T12:29:56;2.75;;;1.15;;
59105;SDS011;44891;50.204;8.132;2022-09-28T12:34:03;2.78;;;1.75;;
59105;SDS011;44891;50.204;8.132;2022-09-28T12:38:14;1.38;;;1.08;;
59105;SDS011;44891;50.204;8.132;2022-09-28T12:42:35;1.60;;;1.00;;
59105;SDS011;44891;50.204;8.132;2022-09-28T12:46:53;3.05;;;1.20;;
59105;SDS011;44891;50.204;8.132;2022-09-28T12:51:12;1.20;;;1.10;;
59105;SDS011;44891;50.204;8.132;2022-09-28T12:55:29;2.45;;;1.98;;
59105;SDS011;44891;50.204;8.132;2022-09-28T12:59:49;1.57;;;1.30;;
59105;SDS011;44891;50.204;8.132;2022-09-28T13:04:05;2.10;;;1.23;;
59105;SDS011;44891;50.204;8.132;2022-09-28T13:08:21;1.10;;;0.65;;
59105;SDS011;44891;50.204;8.132;2022-09-28T13:12:40;1.48;;;0.80;;
59105;SDS011;44891;50.204;8.132;2022-09-28T13:16:54;0.60;;;0.60;;
59105;SDS011;44891;50.204;8.132;2022-09-28T13:21:07;1.52;;;1.40;;
59105;SDS011;44891;50.204;8.132;2022-09-28T13:25:15;0.60;;;0.60;;
59105;SDS011;44891;50.204;8.132;2022-09-28T13:29:22;0.70;;;0.70;;
59105;SDS011;44891;50.204;8.132;2022-09-28T13:33:29;1.88;;;1.05;;
59105;SDS011;44891;50.204;8.132;2022-09-28T13:37:36;1.45;;;1.00;;
59105;SDS011;44891;50.204;8.132;2022-09-28T13:41:38;1.58;;;1.02;;
59105;SDS011;44891;50.204;8.132;2022-09-28T13:45:51;2.95;;;1.20;;
59105;SDS011;44891;50.204;8.132;2022-09-28T13:50:00;2.03;;;1.38;;
59105;SDS011;44891;50.204;8.132;2022-09-28T13:54:19;1.52;;;1.20;;
59105;SDS011;44891;50.204;8.132;2022-09-28T13:58:34;11.95;;;9.00;;
59105;SDS011;44891;50.204;8.132;2022-09-28T14:02:44;2.65;;;1.50;;
59105;SDS011;44891;50.204;8.132;2022-09-28T14:06:48;1.50;;;1.38;;
59105;SDS011;44891;50.204;8.132;2022-09-28T14:10:54;3.63;;;2.00;;
59105;SDS011;44891;50.204;8.132;2022-09-28T14:14:57;3.90;;;3.20;;
59105;SDS011;44891;50.204;8.132;2022-09-28T14:19:02;1.23;;;1.10;;
59105;SDS011;44891;50.204;8.132;2022-09-28T14:23:17;4.90;;;3.92;;
59105;SDS011;44891;50.204;8.132;2022-09-28T14:27:57;2.35;;;1.40;;
59105;SDS011;44891;50.204;8.132;2022-09-28T14:32:19;5.70;;;3.85;;
59105;SDS011;44891;50.204;8.132;2022-09-28T14:36:24;1.55;;;0.80;;
59105;SDS011;44891;50.204;8.132;2022-09-28T14:41:00;2.08;;;1.10;;
59105;SDS011;44891;50.204;8.132;2022-09-28T14:45:32;0.80;;;0.80;;
59105;SDS011;44891;50.204;8.132;2022-09-28T14:49:42;1.15;;;0.80;;
59105;SDS011;44891;50.204;8.132;2022-09-28T14:53:50;1.65;;;1.00;;
59105;SDS011;44891;50.204;8.132;2022-09-28T14:57:53;3.53;;;1.40;;
59105;SDS011;44891;50.204;8.132;2022-09-28T15:01:58;1.27;;;1.10;;
59105;SDS011;44891;50.204;8.132;2022-09-28T15:06:15;1.15;;;1.00;;
59105;SDS011;44891;50.204;8.132;2022-09-28T15:10:28;1.08;;;1.00;;
59105;SDS011;44891;50.204;8.132;2022-09-28T15:14:33;2.65;;;1.20;;
59105;SDS011;44891;50.204;8.132;2022-09-28T15:18:53;2.38;;;1.48;;
59105;SDS011;44891;50.204;8.132;2022-09-28T15:23:21;1.83;;;1.52;;
59105;SDS011;44891;50.204;8.132;2022-09-28T15:27:28;1.20;;;1.10;;
59105;SDS011;44891;50.204;8.132;2022-09-28T15:31:35;2.75;;;1.52;;
59105;SDS011;44891;50.204;8.132;2022-09-28T15:35:37;2.15;;;1.45;;
59105;SDS011;44891;50.204;8.132;2022-09-28T15:39:40;2.70;;;1.60;;
59105;SDS011;44891;50.204;8.132;2022-09-28T15:43:43;4.22;;;1.52;;
59105;SDS011;44891;50.204;8.132;2022-09-28T15:48:18;1.48;;;1.33;;
59105;SDS011;44891;50.204;8.132;2022-09-28T15:52:29;1.58;;;1.30;;
59105;SDS011;44891;50.204;8.132;2022-09-28T15:56:48;2.05;;;1.20;;
59105;SDS011;44891;50.204;8.132;2022-09-28T16:01:16;2.80;;;1.75;;
59105;SDS011;44891;50.204;8.132;2022-09-28T16:09:52;4.75;;;3.72;;
59105;SDS011;44891;50.204;8.132;2022-09-28T16:13:56;3.38;;;2.60;;
59105;SDS011;44891;50.204;8.132;2022-09-28T16:18:05;4.20;;;3.53;;
59105;SDS011;44891;50.204;8.132;2022-09-28T16:22:19;2.10;;;1.30;;
59105;SDS011;44891;50.204;8.132;2022-09-28T16:26:27;2.38;;;1.73;;
59105;SDS011;44891;50.204;8.132;2022-09-28T16:30:32;9.65;;;5.68;;
59105;SDS011;44891;50.204;8.132;2022-09-28T16:34:36;3.05;;;1.90;;
59105;SDS011;44891;50.204;8.132;2022-09-28T16:38:38;3.35;;;2.08;;
59105;SDS011;44891;50.204;8.132;2022-09-28T16:42:42;4.65;;;3.92;;
59105;SDS011;44891;50.204;8.132;2022-09-28T16:46:45;2.95;;;2.03;;
59105;SDS011;44891;50.204;8.132;2022-09-28T16:50:49;2.85;;;1.90;;
59105;SDS011;44891;50.204;8.132;2022-09-28T16:54:51;3.47;;;1.90;;
59105;SDS011;44891;50.204;8.132;2022-09-28T16:59:11;13.98;;;8.93;;
59105;SDS011;44891;50.204;8.132;2022-09-28T17:03:13;18.30;;;12.50;;
59105;SDS011;44891;50.204;8.132;2022-09-28T17:07:19;12.68;;;8.88;;
59105;SDS011;44891;50.204;8.132;2022-09-28T17:11:21;11.18;;;7.80;;
59105;SDS011;44891;50.204;8.132;2022-09-28T17:15:23;4.57;;;3.75;;
59105;SDS011;44891;50.204;8.132;2022-09-28T17:19:25;5.45;;;3.95;;
59105;SDS011;44891;50.204;8.132;2022-09-28T17:23:30;9.68;;;5.28;;
59105;SDS011;44891;50.204;8.132;2022-09-28T17:27:33;6.20;;;3.53;;
59105;SDS011;44891;50.204;8.132;2022-09-28T17:31:35;3.63;;;3.22;;
59105;SDS011;44891;50.204;8.132;2022-09-28T17:35:37;7.25;;;4.60;;
59105;SDS011;44891;50.204;8.132;2022-09-28T17:39:41;8.10;;;5.75;;
59105;SDS011;44891;50.204;8.132;2022-09-28T17:43:43;3.63;;;2.95;;
59105;SDS011;44891;50.204;8.132;2022-09-28T17:47:45;6.50;;;3.53;;
59105;SDS011;44891;50.204;8.132;2022-09-28T17:51:47;9.95;;;5.90;;
59105;SDS011;44891;50.204;8.132;2022-09-28T17:55:51;6.82;;;4.63;;
59105;SDS011;44891;50.204;8.132;2022-09-28T17:59:53;11.23;;;9.00;;
59105;SDS011;44891;50.204;8.132;2022-09-28T18:03:55;16.73;;;11.30;;
59105;SDS011;44891;50.204;8.132;2022-09-28T18:07:58;10.30;;;5.03;;
59105;SDS011;44891;50.204;8.132;2022-09-28T18:12:02;9.55;;;6.72;;
59105;SDS011;44891;50.204;8.132;2022-09-28T18:16:05;14.30;;;9.95;;
59105;SDS011;44891;50.204;8.132;2022-09-28T18:20:09;18.02;;;12.50;;
59105;SDS011;44891;50.204;8.132;2022-09-28T18:24:12;5.50;;;4.40;;
59105;SDS011;44891;50.204;8.132;2022-09-28T18:28:16;5.93;;;3.22;;
59105;SDS011;44891;50.204;8.132;2022-09-28T18:32:18;4.35;;;3.00;;
59105;SDS011;44891;50.204;8.132;2022-09-28T18:40:22;4.85;;;2.58;;
59105;SDS011;44891;50.204;8.132;2022-09-28T18:44:26;3.88;;;2.72;;
59105;SDS011;44891;50.204;8.132;2022-09-28T18:48:28;4.40;;;3.20;;
59105;SDS011;44891;50.204;8.132;2022-09-28T18:52:30;3.80;;;3.42;;
59105;SDS011;44891;50.204;8.132;2022-09-28T18:56:32;5.05;;;3.55;;
59105;SDS011;44891;50.204;8.132;2022-09-28T19:00:38;5.35;;;4.10;;
59105;SDS011;44891;50.204;8.132;2022-09-28T19:04:42;7.07;;;4.32;;
59105;SDS011;44891;50.204;8.132;2022-09-28T19:08:49;7.68;;;4.47;;
59105;SDS011;44891;50.204;8.132;2022-09-28T19:12:52;7.45;;;4.50;;
59105;SDS011;44891;50.204;8.132;2022-09-28T19:16:56;9.70;;;5.13;;
59105;SDS011;44891;50.204;8.132;2022-09-28T19:21:00;10.88;;;6.60;;
59105;SDS011;44891;50.204;8.132;2022-09-28T19:25:03;13.75;;;7.38;;
59105;SDS011;44891;50.204;8.132;2022-09-28T19:29:06;9.82;;;6.30;;
59105;SDS011;44891;50.204;8.132;2022-09-28T19:33:11;11.27;;;6.60;;
59105;SDS011;44891;50.204;8.132;2022-09-28T19:37:13;10.95;;;6.75;;
59105;SDS011;44891;50.204;8.132;2022-09-28T19:41:16;7.97;;;5.97;;
59105;SDS011;44891;50.204;8.132;2022-09-28T19:45:34;9.75;;;7.00;;
59105;SDS011;44891;50.204;8.132;2022-09-28T19:49:38;10.13;;;6.80;;
59105;SDS011;44891;50.204;8.132;2022-09-28T19:53:41;13.27;;;8.40;;
59105;SDS011;44891;50.204;8.132;2022-09-28T20:01:47;9.13;;;7.13;;
59105;SDS011;44891;50.204;8.132;2022-09-28T20:05:56;10.57;;;7.00;;
59105;SDS011;44891;50.204;8.132;2022-09-28T20:09:59;10.48;;;6.45;;
59105;SDS011;44891;50.204;8.132;2022-09-28T20:18:06;5.63;;;5.13;;
59105;SDS011;44891;50.204;8.132;2022-09-28T20:22:12;5.38;;;3.90;;
59105;SDS011;44891;50.204;8.132;2022-09-28T20:26:16;6.38;;;4.07;;
59105;SDS011;44891;50.204;8.132;2022-09-28T20:30:18;9.30;;;5.10;;
59105;SDS011;44891;50.204;8.132;2022-09-28T20:34:20;5.32;;;4.78;;
59105;SDS011;44891;50.204;8.132;2022-09-28T20:38:24;4.65;;;3.70;;
59105;SDS011;44891;50.204;8.132;2022-09-28T20:42:26;5.72;;;3.92;;
59105;SDS011;44891;50.204;8.132;2022-09-28T20:46:31;4.50;;;3.58;;
59105;SDS011;44891;50.204;8.132;2022-09-28T20:50:34;4.47;;;3.15;;
59105;SDS011;44891;50.204;8.132;2022-09-28T20:54:37;6.15;;;4.22;;
59105;SDS011;44891;50.204;8.132;2022-09-28T20:58:39;9.70;;;7.75;;
59105;SDS011;44891;50.204;8.132;2022-09-28T21:02:42;10.15;;;7.63;;
59105;SDS011;44891;50.204;8.132;2022-09-28T21:06:44;6.05;;;4.30;;
59105;SDS011;44891;50.204;8.132;2022-09-28T21:14:51;5.97;;;3.88;;
59105;SDS011;44891;50.204;8.132;2022-09-28T21:18:54;5.20;;;3.65;;
59105;SDS011;44891;50.204;8.132;2022-09-28T21:22:56;4.95;;;3.90;;
59105;SDS011;44891;50.204;8.132;2022-09-28T21:31:01;8.27;;;3.83;;
59105;SDS011;44891;50.204;8.132;2022-09-28T21:35:06;5.07;;;2.95;;
59105;SDS011;44891;50.204;8.132;2022-09-28T21:39:09;5.38;;;3.47;;
59105;SDS011;44891;50.204;8.132;2022-09-28T21:43:12;5.25;;;3.40;;
59105;SDS011;44891;50.204;8.132;2022-09-28T21:47:14;2.80;;;2.50;;
59105;SDS011;44891;50.204;8.132;2022-09-28T21:55:19;4.57;;;2.90;;
59105;SDS011;44891;50.204;8.132;2022-09-28T21:59:23;3.72;;;2.90;;
59105;SDS011;44891;50.204;8.132;2022-09-28T22:03:25;4.57;;;2.95;;
59105;SDS011;44891;50.204;8.132;2022-09-28T22:11:29;5.57;;;2.65;;
59105;SDS011;44891;50.204;8.132;2022-09-28T22:19:35;4.05;;;2.90;;
59105;SDS011;44891;50.204;8.132;2022-09-28T22:23:37;4.93;;;3.83;;
59105;SDS011;44891;50.204;8.132;2022-09-28T22:27:40;7.18;;;3.95;;
59105;SDS011;44891;50.204;8.132;2022-09-28T22:35:45;2.72;;;2.47;;
59105;SDS011;44891;50.204;8.132;2022-09-28T22:39:48;4.25;;;3.28;;
59105;SDS011;44891;50.204;8.132;2022-09-28T22:43:51;5.03;;;3.75;;
59105;SDS011;44891;50.204;8.132;2022-09-28T22:47:55;4.07;;;2.90;;
59105;SDS011;44891;50.204;8.132;2022-09-28T22:51:57;4.03;;;2.83;;
59105;SDS011;44891;50.204;8.132;2022-09-28T23:00:06;3.80;;;2.67;;
59105;SDS011;44891;50.204;8.132;2022-09-28T23:04:11;4.25;;;2.90;;
59105;SDS011;44891;50.204;8.132;2022-09-28T23:08:13;3.42;;;2.90;;
59105;SDS011;44891;50.204;8.132;2022-09-28T23:12:15;3.60;;;2.53;;
59105;SDS011;44891;50.204;8.132;2022-09-28T23:16:17;4.07;;;2.60;;
59105;SDS011;44891;50.204;8.132;2022-09-28T23:20:21;3.00;;;2.30;;
59105;SDS011;44891;50.204;8.132;2022-09-28T23:24:24;3.60;;;3.10;;
59105;SDS011;44891;50.204;8.132;2022-09-28T23:32:28;6.88;;;2.50;;
59105;SDS011;44891;50.204;8.132;2022-09-28T23:36:32;2.67;;;2.33;;
59105;SDS011;44891;50.204;8.132;2022-09-28T23:40:34;3.40;;;3.10;;
59105;SDS011;44891;50.204;8.132;2022-09-28T23:44:36;4.13;;;2.58;;
59105;SDS011;44891;50.204;8.132;2022-09-28T23:52:42;4.57;;;3.08;;
59105;SDS011;44891;50.204;8.132;2022-09-28T23:56:44;4.38;;;2.65;;
